Martin, Ohio
Current Conditions -  °F | °C
As of 1:53 AM on Saturday 29 Nov 2014 (Local Time) from KTDZ Reporting Station
Overcast Overcast  
Wind Chill: 24°   Ceiling: 11000
Heat Index: 31°   Visibility: 10mi
Dew Point: 22°   Wind: 7mph
Humidity: 69%   Direction: 150°SSE
Pressure: 30.05"   Gusts: NA
Location:  41.56°N, 83.34°W
Report Text: KTDZ 290653Z AUTO 15006KT 10SM FEW090 OVC110 M01/M06 A3005 RMK AO2 SLP184 T10061056 TSNO
Loading
Personal Weather Stations






























Interactive Weather Map New forecast layout! Learn more

10-Day Weather Forecast

Advertisements
Track Severe Weather on mobile